createdAt,value
2022-11-15T00:01:58.471Z,11.93
2022-11-15T00:04:44.927Z,12.35
2022-11-15T00:07:53.964Z,7.45
2022-11-15T00:10:38.466Z,10.00
2022-11-15T00:13:24.890Z,6.43
2022-11-15T00:16:11.756Z,7.00
2022-11-15T00:18:58.525Z,5.38
2022-11-15T00:21:44.716Z,5.13
2022-11-15T00:24:30.655Z,10.95
2022-11-15T00:27:17.318Z,7.43
2022-11-15T00:30:03.607Z,14.52
2022-11-15T00:32:50.001Z,7.60
2022-11-15T00:35:36.393Z,5.07
2022-11-15T00:38:22.738Z,12.10
2022-11-15T00:41:10.206Z,9.80
2022-11-15T00:43:56.489Z,6.97
2022-11-15T00:46:42.795Z,6.57
2022-11-15T00:49:28.870Z,9.90
2022-11-15T00:52:14.803Z,12.88
2022-11-15T00:55:01.590Z,9.85
2022-11-15T00:57:53.830Z,11.93
2022-11-15T01:00:39.882Z,8.80
2022-11-15T01:03:26.006Z,6.65
2022-11-15T01:06:12.949Z,7.40
2022-11-15T01:08:59.036Z,6.07
2022-11-15T01:11:45.623Z,12.80
2022-11-15T01:14:32.482Z,6.15
2022-11-15T01:17:18.991Z,7.72
2022-11-15T01:20:05.485Z,7.78
2022-11-15T01:22:51.550Z,9.55
2022-11-15T01:25:38.057Z,8.15
2022-11-15T01:28:24.494Z,10.35
2022-11-15T01:31:15.289Z,7.65
2022-11-15T01:34:01.433Z,11.63
2022-11-15T01:36:47.277Z,5.20
2022-11-15T01:39:33.617Z,10.75
2022-11-15T01:42:19.640Z,10.38
2022-11-15T01:45:06.319Z,7.25
2022-11-15T01:47:54.732Z,13.15
2022-11-15T01:50:43.595Z,9.23
2022-11-15T01:53:31.479Z,8.57
2022-11-15T01:56:25.555Z,4.32
2022-11-15T01:59:12.803Z,10.18
2022-11-15T02:02:01.632Z,2.92
2022-11-15T02:04:48.854Z,4.55
2022-11-15T02:07:36.699Z,5.95
2022-11-15T02:10:25.199Z,8.63
2022-11-15T02:13:11.567Z,6.32
2022-11-15T02:16:11.626Z,10.20
2022-11-15T02:19:10.157Z,3.33
2022-11-15T02:22:17.805Z,5.22
2022-11-15T02:25:35.756Z,12.23
2022-11-15T02:28:24.812Z,9.73
2022-11-15T02:31:26.375Z,3.17
2022-11-15T02:34:40.446Z,15.27
2022-11-15T02:37:39.360Z,10.32
2022-11-15T02:40:50.388Z,7.32
2022-11-15T02:43:57.745Z,10.70
2022-11-15T02:47:05.932Z,5.20
2022-11-15T02:49:59.677Z,10.10
2022-11-15T02:52:52.359Z,12.27
2022-11-15T02:55:42.693Z,6.32
2022-11-15T02:58:40.406Z,5.85
2022-11-15T03:01:47.702Z,8.13
2022-11-15T03:04:39.826Z,7.85
2022-11-15T03:07:37.841Z,9.02
2022-11-15T03:10:42.502Z,8.07
2022-11-15T03:13:38.649Z,9.88
2022-11-15T03:16:45.842Z,14.02
2022-11-15T03:19:41.433Z,3.50
2022-11-15T03:22:30.757Z,7.65
2022-11-15T03:25:23.466Z,5.72
2022-11-15T03:28:13.946Z,11.35
2022-11-15T03:31:01.968Z,4.32
2022-11-15T03:33:47.900Z,9.88
2022-11-15T03:36:35.529Z,11.50
2022-11-15T03:39:22.640Z,8.18
2022-11-15T03:42:33.151Z,9.45
2022-11-15T03:45:42.367Z,4.50
2022-11-15T03:48:35.588Z,6.50
2022-11-15T03:51:21.888Z,7.85
2022-11-15T03:54:07.978Z,5.22
2022-11-15T03:56:54.146Z,15.27
2022-11-15T03:59:40.411Z,7.15
2022-11-15T04:02:26.443Z,5.85
2022-11-15T04:05:12.861Z,7.30
2022-11-15T04:07:59.333Z,10.02
2022-11-15T04:10:45.806Z,8.07
2022-11-15T04:13:32.357Z,4.25
2022-11-15T04:16:18.719Z,15.23
2022-11-15T04:19:23.676Z,6.13
2022-11-15T04:22:28.412Z,5.20
2022-11-15T04:25:15.416Z,6.68
2022-11-15T04:28:03.795Z,13.98
2022-11-15T04:30:50.049Z,9.40
2022-11-15T04:33:36.465Z,9.07
2022-11-15T04:36:41.009Z,7.28
2022-11-15T04:39:27.199Z,12.13
2022-11-15T04:42:13.007Z,6.30
2022-11-15T04:44:59.270Z,8.85
2022-11-15T04:47:46.443Z,8.48
2022-11-15T04:50:32.305Z,6.13
2022-11-15T04:53:18.250Z,7.88
2022-11-15T04:56:04.387Z,8.50
2022-11-15T04:58:51.005Z,11.52
2022-11-15T05:01:41.922Z,7.53
2022-11-15T05:04:30.777Z,12.00
2022-11-15T05:07:17.186Z,7.15
2022-11-15T05:10:03.669Z,7.32
2022-11-15T05:12:49.893Z,8.27
2022-11-15T05:15:35.748Z,3.67
2022-11-15T05:18:23.894Z,6.70
2022-11-15T05:21:15.304Z,9.57
2022-11-15T05:24:02.653Z,5.97
2022-11-15T05:26:48.451Z,6.45
2022-11-15T05:29:34.284Z,12.68
2022-11-15T05:32:20.085Z,8.13
2022-11-15T05:35:08.722Z,8.18
2022-11-15T05:37:54.688Z,9.05
2022-11-15T05:40:41.157Z,7.97
2022-11-15T05:43:27.835Z,6.60
2022-11-15T05:46:15.295Z,5.53
2022-11-15T05:49:01.924Z,3.60
2022-11-15T05:51:49.393Z,9.43
2022-11-15T05:54:37.407Z,7.20
2022-11-15T05:57:24.894Z,7.47
2022-11-15T06:00:11.386Z,2.90
2022-11-15T06:02:57.549Z,10.55
2022-11-15T06:05:43.239Z,9.40
2022-11-15T06:08:29.376Z,5.82
2022-11-15T06:11:15.814Z,6.47
2022-11-15T06:14:02.276Z,9.20
2022-11-15T06:16:48.448Z,7.72
2022-11-15T06:19:34.375Z,7.97
2022-11-15T06:22:20.256Z,11.65
2022-11-15T06:25:06.841Z,5.55
2022-11-15T06:27:56.626Z,10.02
2022-11-15T06:30:42.528Z,6.30
2022-11-15T06:33:28.587Z,6.38
2022-11-15T06:36:17.831Z,5.43
2022-11-15T06:39:05.788Z,9.52
2022-11-15T06:41:51.753Z,7.75
2022-11-15T06:44:37.703Z,8.57
2022-11-15T06:47:23.845Z,8.98
2022-11-15T06:50:10.554Z,6.13
2022-11-15T06:53:01.101Z,3.58
2022-11-15T06:55:50.829Z,7.70
2022-11-15T06:58:39.721Z,5.57
2022-11-15T07:01:26.026Z,8.82
2022-11-15T07:04:12.212Z,10.30
2022-11-15T07:06:58.272Z,9.38
2022-11-15T07:09:44.746Z,8.15
2022-11-15T07:12:31.354Z,2.85
2022-11-15T07:15:19.180Z,4.78
2022-11-15T07:18:05.345Z,11.35
2022-11-15T07:20:51.927Z,6.68
2022-11-15T07:23:39.821Z,4.30
2022-11-15T07:26:25.919Z,4.13
2022-11-15T07:29:12.386Z,9.95
2022-11-15T07:31:58.818Z,7.97
2022-11-15T07:34:46.826Z,5.18
2022-11-15T07:37:33.270Z,6.78
2022-11-15T07:40:19.216Z,3.92
2022-11-15T07:43:07.271Z,4.97
2022-11-15T07:45:58.796Z,19.23
2022-11-15T07:48:46.031Z,6.70
2022-11-15T07:51:32.047Z,3.42
2022-11-15T07:54:17.945Z,5.15
2022-11-15T07:57:07.566Z,5.53
2022-11-15T07:59:54.719Z,4.70
2022-11-15T08:02:41.415Z,3.35
2022-11-15T08:05:27.587Z,1.83
2022-11-15T08:08:14.320Z,4.20
2022-11-15T08:11:00.911Z,1.55
2022-11-15T08:13:47.349Z,2.90
2022-11-15T08:16:33.458Z,4.82
2022-11-15T08:19:19.629Z,3.22
2022-11-15T08:22:05.658Z,3.28
2022-11-15T08:24:51.445Z,2.15
2022-11-15T08:27:37.700Z,2.83
2022-11-15T08:30:25.006Z,1.77
2022-11-15T08:33:13.741Z,1.98
2022-11-15T08:36:03.061Z,1.42
2022-11-15T08:38:49.131Z,2.08
2022-11-15T08:41:38.472Z,3.22
2022-11-15T08:44:25.104Z,1.87
2022-11-15T08:47:14.970Z,1.27
2022-11-15T08:50:02.069Z,2.22
2022-11-15T08:52:49.273Z,1.80
2022-11-15T08:55:38.901Z,2.22
2022-11-15T08:58:25.327Z,0.40
2022-11-15T09:01:21.295Z,1.50
2022-11-15T09:04:07.693Z,0.98
2022-11-15T09:06:54.132Z,1.25
2022-11-15T09:09:41.189Z,2.35
2022-11-15T09:12:27.509Z,2.05
2022-11-15T09:15:13.599Z,1.00
2022-11-15T09:18:00.533Z,0.88
2022-11-15T09:20:46.288Z,0.90
2022-11-15T09:23:32.095Z,0.93
2022-11-15T09:26:17.952Z,1.98
2022-11-15T09:29:04.571Z,3.42
2022-11-15T09:31:53.734Z,1.17
2022-11-15T09:34:40.423Z,4.20
2022-11-15T09:37:26.693Z,1.58
2022-11-15T09:40:17.454Z,0.95
2022-11-15T09:43:12.340Z,1.40
2022-11-15T09:46:39.388Z,1.67
2022-11-15T09:49:25.470Z,2.28
2022-11-15T09:52:05.900Z,1.85
2022-11-15T09:54:58.213Z,1.00
2022-11-15T09:57:53.437Z,1.33
2022-11-15T10:00:46.370Z,0.60
2022-11-15T10:03:28.374Z,1.02
2022-11-15T10:06:01.332Z,2.97
2022-11-15T10:08:32.544Z,0.82
2022-11-15T10:11:36.070Z,2.47
2022-11-15T10:13:54.542Z,1.65
2022-11-15T10:16:49.875Z,1.48
2022-11-15T10:19:36.192Z,0.90
2022-11-15T10:22:30.017Z,1.42
2022-11-15T10:25:15.903Z,1.08
2022-11-15T10:27:45.578Z,2.03
2022-11-15T10:30:18.586Z,1.73
2022-11-15T10:32:48.127Z,1.27
2022-11-15T10:35:25.121Z,0.80
2022-11-15T10:37:52.762Z,2.13
2022-11-15T10:40:24.524Z,1.70
2022-11-15T10:43:09.007Z,1.67
2022-11-15T10:45:37.753Z,0.40
2022-11-15T10:48:14.477Z,1.10
2022-11-15T10:50:47.501Z,0.90
2022-11-15T10:53:26.332Z,2.72
2022-11-15T10:55:59.004Z,1.38
2022-11-15T10:58:33.613Z,4.22
2022-11-15T11:01:21.299Z,1.15
2022-11-15T11:04:12.104Z,1.17
2022-11-15T11:07:00.670Z,1.73
2022-11-15T11:09:43.626Z,1.08
2022-11-15T11:12:13.266Z,1.40
2022-11-15T11:14:41.053Z,0.98
2022-11-15T11:17:30.475Z,1.38
2022-11-15T11:20:17.189Z,2.22
2022-11-15T11:23:02.421Z,1.85
2022-11-15T11:25:39.334Z,0.68
2022-11-15T11:28:40.651Z,1.85
2022-11-15T11:31:08.214Z,1.77
2022-11-15T11:34:15.005Z,1.73
2022-11-15T11:37:36.844Z,1.35
2022-11-15T11:40:22.223Z,2.03
2022-11-15T11:43:11.684Z,0.20
2022-11-15T11:45:50.285Z,0.65
2022-11-15T11:48:20.608Z,0.40
2022-11-15T11:50:48.796Z,0.40
2022-11-15T11:53:40.039Z,0.22
2022-11-15T11:56:27.767Z,0.38
2022-11-15T11:59:01.552Z,0.93
2022-11-15T12:01:43.728Z,1.65
2022-11-15T12:04:21.629Z,0.60
2022-11-15T12:07:21.216Z,0.70
2022-11-15T12:10:04.034Z,0.85
2022-11-15T12:12:40.323Z,1.00
2022-11-15T12:15:10.855Z,1.60
2022-11-15T12:17:41.320Z,0.88
2022-11-15T12:20:37.483Z,1.25
2022-11-15T12:23:45.288Z,2.35
2022-11-15T12:26:27.283Z,2.85
2022-11-15T12:29:08.781Z,2.08
2022-11-15T12:31:41.010Z,2.63
2022-11-15T12:34:21.014Z,1.30
2022-11-15T12:36:50.502Z,1.02
2022-11-15T12:39:18.493Z,1.27
2022-11-15T12:42:06.068Z,1.30
2022-11-15T12:44:37.159Z,2.70
2022-11-15T12:47:06.325Z,1.48
2022-11-15T12:49:36.956Z,2.13
2022-11-15T12:52:07.756Z,0.73
2022-11-15T12:54:41.408Z,4.78
2022-11-15T12:57:09.253Z,5.80
2022-11-15T13:00:02.911Z,1.52
2022-11-15T13:02:37.481Z,2.22
2022-11-15T13:05:18.680Z,0.93
2022-11-15T13:07:46.499Z,1.27
2022-11-15T13:10:14.089Z,0.95
2022-11-15T13:12:51.506Z,1.45
2022-11-15T13:15:22.913Z,1.52
2022-11-15T13:17:56.081Z,4.35
2022-11-15T13:20:27.720Z,3.13
2022-11-15T13:23:03.033Z,2.50
2022-11-15T13:26:11.342Z,4.05
2022-11-15T13:28:51.905Z,5.50
2022-11-15T13:31:25.561Z,2.13
2022-11-15T13:33:56.092Z,1.85
2022-11-15T13:36:28.283Z,4.85
2022-11-15T13:39:07.666Z,2.75
2022-11-15T13:41:48.033Z,2.90
2022-11-15T13:44:24.757Z,2.63
2022-11-15T13:47:07.297Z,6.47
2022-11-15T13:49:35.864Z,3.53
2022-11-15T13:52:07.257Z,11.18
2022-11-15T13:54:44.097Z,5.15
2022-11-15T13:57:31.938Z,6.40
2022-11-15T14:00:04.351Z,9.48
2022-11-15T14:02:39.687Z,8.10
2022-11-15T14:05:18.774Z,8.35
2022-11-15T14:08:03.993Z,5.30
2022-11-15T14:10:38.774Z,10.93
2022-11-15T14:13:27.259Z,9.55
2022-11-15T14:15:54.879Z,8.25
2022-11-15T14:18:44.772Z,11.02
2022-11-15T14:21:13.063Z,9.52
2022-11-15T14:23:41.070Z,11.10
2022-11-15T14:26:29.796Z,10.75
2022-11-15T14:28:57.733Z,10.85
2022-11-15T14:31:25.440Z,10.27
2022-11-15T14:33:55.643Z,13.38
2022-11-15T14:36:24.549Z,12.43
2022-11-15T14:38:52.182Z,13.57
2022-11-15T14:41:22.722Z,16.75
2022-11-15T14:43:52.422Z,7.10
2022-11-15T14:46:23.085Z,10.88
2022-11-15T14:48:51.212Z,11.48
2022-11-15T14:51:19.704Z,18.50
2022-11-15T14:53:48.195Z,10.57
2022-11-15T14:56:17.252Z,19.90
2022-11-15T14:58:44.930Z,10.07
2022-11-15T15:01:21.262Z,18.88
2022-11-15T15:03:49.450Z,13.77
2022-11-15T15:06:18.530Z,21.58
2022-11-15T15:08:47.363Z,39.47
2022-11-15T15:11:19.780Z,46.58
2022-11-15T15:13:47.427Z,58.95
2022-11-15T15:16:14.963Z,18.52
2022-11-15T15:18:42.554Z,24.50
2022-11-15T15:21:27.490Z,11.02
2022-11-15T15:23:57.752Z,23.15
2022-11-15T15:26:25.382Z,12.98
2022-11-15T15:28:53.135Z,13.73
2022-11-15T15:31:20.794Z,12.00
2022-11-15T15:33:48.702Z,12.20
2022-11-15T15:36:19.418Z,18.75
2022-11-15T15:38:47.814Z,17.45
2022-11-15T15:41:16.882Z,26.63
2022-11-15T15:43:44.933Z,21.52
2022-11-15T15:46:17.137Z,25.13
2022-11-15T15:48:45.451Z,30.10
2022-11-15T15:51:18.751Z,19.92
2022-11-15T15:53:49.099Z,30.42
2022-11-15T15:56:16.714Z,21.58
2022-11-15T15:58:44.384Z,15.63
2022-11-15T16:01:11.995Z,14.32
2022-11-15T16:03:39.618Z,20.92
2022-11-15T16:06:33.370Z,15.13
2022-11-15T16:09:14.638Z,15.98
2022-11-15T16:11:45.807Z,24.88
2022-11-15T16:14:13.573Z,17.25
2022-11-15T16:16:41.322Z,18.67
2022-11-15T16:19:11.458Z,12.25
2022-11-15T16:21:39.167Z,23.50
2022-11-15T16:24:06.876Z,22.83
2022-11-15T16:26:36.976Z,21.52
2022-11-15T16:31:31.839Z,12.75
2022-11-15T16:33:59.497Z,17.83
2022-11-15T16:36:30.680Z,13.30
2022-11-15T16:39:00.013Z,26.50
2022-11-15T16:41:27.854Z,19.38
2022-11-15T16:43:55.424Z,16.63
2022-11-15T16:46:27.631Z,32.58
2022-11-15T16:48:55.669Z,23.55
2022-11-15T16:51:23.922Z,24.35
2022-11-15T16:53:51.794Z,20.33
2022-11-15T16:56:22.740Z,28.48
2022-11-15T16:58:51.015Z,28.42
2022-11-15T17:01:24.284Z,19.88
2022-11-15T17:03:54.428Z,17.73
2022-11-15T17:06:22.637Z,22.75
2022-11-15T17:08:50.282Z,30.63
2022-11-15T17:11:22.879Z,21.77
2022-11-15T17:13:50.759Z,20.98
2022-11-15T17:16:19.061Z,16.35
2022-11-15T17:18:51.610Z,16.58
2022-11-15T17:21:21.309Z,20.00
2022-11-15T17:23:49.347Z,22.15
2022-11-15T17:26:29.686Z,17.48
2022-11-15T17:29:00.954Z,26.73
2022-11-15T17:31:30.824Z,19.10
2022-11-15T17:33:58.445Z,21.40
2022-11-15T17:36:26.016Z,27.17
2022-11-15T17:38:59.085Z,23.83
2022-11-15T17:41:28.901Z,31.35
2022-11-15T17:44:01.906Z,29.50
2022-11-15T17:46:30.289Z,21.85
2022-11-15T17:48:58.537Z,24.00
2022-11-15T17:51:26.735Z,28.25
2022-11-15T17:53:56.280Z,24.88
2022-11-15T17:56:25.714Z,24.73
2022-11-15T17:58:55.656Z,21.23
2022-11-15T18:01:32.042Z,29.02
2022-11-15T18:04:02.123Z,29.40
2022-11-15T18:08:58.543Z,30.38
2022-11-15T18:11:32.778Z,39.63
2022-11-15T18:14:02.618Z,28.27
2022-11-15T18:16:33.522Z,34.08
2022-11-15T18:19:01.416Z,33.83
2022-11-15T18:21:31.428Z,34.95
2022-11-15T18:26:30.097Z,46.28
2022-11-15T18:31:31.464Z,31.52
2022-11-15T18:34:00.343Z,32.57
2022-11-15T18:36:29.782Z,57.00
2022-11-15T18:38:58.809Z,52.67
2022-11-15T18:41:29.526Z,35.23
2022-11-15T18:43:58.687Z,34.92
2022-11-15T18:46:28.786Z,42.97
2022-11-15T18:48:59.731Z,43.08
2022-11-15T18:51:30.868Z,49.25
2022-11-15T18:54:02.769Z,46.65
2022-11-15T18:56:31.879Z,58.05
2022-11-15T18:59:02.074Z,55.83
2022-11-15T19:01:35.337Z,56.22
2022-11-15T19:04:10.004Z,50.80
2022-11-15T19:06:45.300Z,46.85
2022-11-15T19:09:16.216Z,41.08
2022-11-15T19:11:45.166Z,42.08
2022-11-15T19:14:16.119Z,45.28
2022-11-15T19:16:46.036Z,37.45
2022-11-15T19:19:16.322Z,30.88
2022-11-15T19:21:44.607Z,39.92
2022-11-15T19:24:13.065Z,35.75
2022-11-15T19:26:41.040Z,30.70
2022-11-15T19:29:13.904Z,31.02
2022-11-15T19:31:41.882Z,26.05
2022-11-15T19:34:10.178Z,27.25
2022-11-15T19:36:40.219Z,23.02
2022-11-15T19:41:39.740Z,17.55
2022-11-15T19:44:07.766Z,30.75
2022-11-15T19:46:35.643Z,22.40
2022-11-15T19:49:03.287Z,17.58
2022-11-15T19:51:31.181Z,16.60
2022-11-15T19:54:03.852Z,13.50
2022-11-15T19:56:31.444Z,17.58
2022-11-15T19:58:59.012Z,25.35
2022-11-15T20:01:31.955Z,14.45
2022-11-15T20:04:00.335Z,12.88
2022-11-15T20:06:33.026Z,25.42
2022-11-15T20:09:01.087Z,18.33
2022-11-15T20:11:28.916Z,11.85
2022-11-15T20:13:58.606Z,16.80
2022-11-15T20:16:26.696Z,14.90
2022-11-15T20:18:54.522Z,11.90
2022-11-15T20:21:22.347Z,12.57
2022-11-15T20:23:51.729Z,8.60
2022-11-15T20:26:20.494Z,11.98
2022-11-15T20:28:49.149Z,10.15
2022-11-15T20:31:17.504Z,9.88
2022-11-15T20:33:45.377Z,7.85
2022-11-15T20:36:15.651Z,10.95
2022-11-15T20:38:46.505Z,6.65
2022-11-15T20:41:14.523Z,12.63
2022-11-15T20:43:43.771Z,11.30
2022-11-15T20:46:12.663Z,9.60
2022-11-15T20:48:40.532Z,5.07
2022-11-15T20:51:15.480Z,12.18
2022-11-15T20:53:45.087Z,17.02
2022-11-15T20:56:19.666Z,8.02
2022-11-15T20:58:48.227Z,13.77
2022-11-15T21:01:19.753Z,12.32
2022-11-15T21:03:47.415Z,17.02
2022-11-15T21:06:15.038Z,8.70
2022-11-15T21:09:01.159Z,13.63
2022-11-15T21:11:47.423Z,10.93
2022-11-15T21:14:15.184Z,13.32
2022-11-15T21:16:43.669Z,8.05
2022-11-15T21:19:12.164Z,8.35
2022-11-15T21:21:40.124Z,4.22
2022-11-15T21:24:12.650Z,10.70
2022-11-15T21:26:40.446Z,12.40
2022-11-15T21:29:08.106Z,9.57
2022-11-15T21:31:35.642Z,8.18
2022-11-15T21:34:04.603Z,13.10
2022-11-15T21:36:32.212Z,11.75
2022-11-15T21:38:59.741Z,10.07
2022-11-15T21:41:27.885Z,12.18
2022-11-15T21:43:59.902Z,13.20
2022-11-15T21:46:29.266Z,11.77
2022-11-15T21:48:57.766Z,9.15
2022-11-15T21:51:26.016Z,12.07
2022-11-15T21:53:59.119Z,7.03
2022-11-15T21:56:28.354Z,5.20
2022-11-15T21:58:56.434Z,6.20
2022-11-15T22:01:43.722Z,11.27
2022-11-15T22:04:12.210Z,12.18
2022-11-15T22:06:40.144Z,7.18
2022-11-15T22:09:07.864Z,10.48
2022-11-15T22:11:35.730Z,8.63
2022-11-15T22:14:04.050Z,10.82
2022-11-15T22:16:31.967Z,14.98
2022-11-15T22:19:00.120Z,16.65
2022-11-15T22:21:27.904Z,17.63
2022-11-15T22:23:55.659Z,12.00
2022-11-15T22:26:24.124Z,8.10
2022-11-15T22:28:52.365Z,10.60
2022-11-15T22:31:19.937Z,8.70
2022-11-15T22:33:47.658Z,14.27
2022-11-15T22:36:15.553Z,10.10
2022-11-15T22:38:46.291Z,12.50
2022-11-15T22:41:14.146Z,8.88
2022-11-15T22:43:41.797Z,10.25
2022-11-15T22:46:09.896Z,16.23
2022-11-15T22:48:39.461Z,10.50
2022-11-15T23:01:34.317Z,17.45
2022-11-15T23:04:02.257Z,9.05
2022-11-15T23:06:29.898Z,13.60
2022-11-15T23:08:57.598Z,10.95
2022-11-15T23:11:43.653Z,12.98
2022-11-15T23:14:11.447Z,15.23
2022-11-15T23:16:39.782Z,15.98
2022-11-15T23:19:10.077Z,13.93
2022-11-15T23:22:02.078Z,20.88
2022-11-15T23:24:30.650Z,15.27
2022-11-15T23:27:02.329Z,19.48
2022-11-15T23:29:30.767Z,21.08
2022-11-15T23:32:16.788Z,15.85
2022-11-15T23:34:45.914Z,21.23
2022-11-15T23:37:15.389Z,17.92
2022-11-15T23:39:43.150Z,18.05
2022-11-15T23:42:19.810Z,20.10
2022-11-15T23:44:50.848Z,18.20
2022-11-15T23:47:21.382Z,19.63
2022-11-15T23:49:48.958Z,16.05
2022-11-15T23:52:17.425Z,22.85
2022-11-15T23:54:45.118Z,25.23
2022-11-15T23:57:12.903Z,25.33
2022-11-15T23:59:43.839Z,20.50
